Etusivu
METAR-TAF:

METAR-TAF

Lentoasemat :

Charles City, Iowa, Yhdysvallat

Leveyspiiri: 43-04N, Pituuspiiri: 092-37W, korkeus merenpinnasta: 343 m

Tämänhetkinen sää

Tämä raportti tehtiin 34 minuuttia sitten, kello 08.15 UTC
Tuuli 16 kn etelästä
Lämpötila -4°C
Kosteus 86%
Ilmanpaine 1017 hPa
Näkyvyys: 16.1 km
Pilvistä 6000 ft:n korkeudessa

METAR: KCCY 220815Z AUTO 18016KT 10SM OVC060 M04/M06 A3004 RMK AO2

Aika: 02:49 (08:49 UTC)


TAF: puuttuu

Säähavainnot ja -ennusteet yli 4000 lentoasemalta (METAR- ja TAF-raportit).

Käytössä olevat sääasemat on merkitty karttaan keltaisilla ja punaisilla pisteillä.

Aseta hiiri pisteen päälle nähdäksesi sääaseman nimen.

Klikkaa sitten nähdäksesi säähavainnot ja -ennusteet.

Kartan vaihtaminen: klikkaa mustalla rastilla varustettuja vihreitä pisteitä, niin voit zoomata sisään; viivalla varustettua vihreää pistettä, niin voit zoomata ulos tai vihreitä nuolia, niin pääset viereisille kartoille.


METAR-TAF: